createdAt,value
2023-02-12T00:02:08.074Z,68.22
2023-02-12T00:04:57.235Z,65.25
2023-02-12T00:07:47.846Z,67.80
2023-02-12T00:10:41.050Z,63.95
2023-02-12T00:16:26.869Z,59.47
2023-02-12T00:19:16.063Z,59.63
2023-02-12T00:22:05.370Z,61.15
2023-02-12T00:24:56.481Z,63.38
2023-02-12T00:27:45.824Z,64.53
2023-02-12T00:30:35.221Z,64.85
2023-02-12T00:33:24.483Z,65.85
2023-02-12T00:36:18.135Z,64.10
2023-02-12T00:39:07.365Z,62.17
2023-02-12T00:41:59.532Z,63.67
2023-02-12T00:44:48.701Z,62.28
2023-02-12T00:47:37.850Z,54.47
2023-02-12T00:50:28.453Z,57.08
2023-02-12T00:53:19.680Z,58.88
2023-02-12T00:56:09.293Z,61.67
2023-02-12T00:59:00.486Z,66.05
2023-02-12T01:01:49.825Z,59.97
2023-02-12T01:04:39.175Z,65.55
2023-02-12T01:07:28.397Z,58.65
2023-02-12T01:10:20.847Z,61.70
2023-02-12T01:13:13.130Z,62.92
2023-02-12T01:16:17.638Z,62.83
2023-02-12T01:19:07.497Z,55.58
2023-02-12T01:21:56.879Z,61.78
2023-02-12T01:24:46.148Z,62.60
2023-02-12T01:27:35.996Z,65.45
2023-02-12T01:30:25.580Z,59.15
2023-02-12T01:33:16.301Z,67.05
2023-02-12T01:36:05.940Z,63.35
2023-02-12T01:38:55.461Z,63.97
2023-02-12T01:41:46.389Z,61.47
2023-02-12T01:44:39.078Z,65.63
2023-02-12T01:47:28.367Z,59.08
2023-02-12T01:50:21.853Z,60.20
2023-02-12T01:53:11.285Z,63.03
2023-02-12T01:56:03.273Z,59.30
2023-02-12T01:58:55.717Z,61.60
2023-02-12T02:01:45.305Z,57.92
2023-02-12T02:04:39.678Z,54.25
2023-02-12T02:07:31.001Z,57.30
2023-02-12T02:10:20.428Z,57.67
2023-02-12T02:13:27.595Z,54.17
2023-02-12T02:16:25.609Z,58.15
2023-02-12T02:19:30.299Z,56.10
2023-02-12T02:22:35.219Z,54.03
2023-02-12T02:26:06.548Z,31.30
2023-02-12T02:29:28.744Z,27.45
2023-02-12T02:32:24.765Z,22.23
2023-02-12T02:35:19.761Z,23.92
2023-02-12T02:38:20.858Z,25.88
2023-02-12T02:41:19.329Z,19.50
2023-02-12T02:44:15.294Z,21.63
2023-02-12T02:47:10.999Z,24.38
2023-02-12T02:50:07.450Z,26.90
2023-02-12T02:53:03.460Z,24.55
2023-02-12T02:55:58.157Z,20.58
2023-02-12T02:58:53.033Z,20.63
2023-02-12T03:01:46.797Z,23.17
2023-02-12T03:07:37.910Z,23.42
2023-02-12T03:10:33.436Z,23.67
2023-02-12T03:13:27.799Z,32.05
2023-02-12T03:16:24.479Z,28.58
2023-02-12T03:19:20.576Z,28.58
2023-02-12T03:22:15.040Z,28.92
2023-02-12T03:25:15.009Z,30.77
2023-02-12T03:28:10.066Z,30.20
2023-02-12T03:31:08.729Z,30.45
2023-02-12T03:34:10.512Z,32.92
2023-02-12T03:37:06.782Z,33.35
2023-02-12T03:40:02.324Z,33.13
2023-02-12T03:43:02.966Z,36.38
2023-02-12T03:45:59.596Z,34.90
2023-02-12T03:49:00.638Z,36.13
2023-02-12T03:51:49.996Z,35.92
2023-02-12T03:54:39.433Z,36.63
2023-02-12T03:57:35.236Z,36.13
2023-02-12T04:00:26.891Z,37.00
2023-02-12T04:03:16.287Z,37.50
2023-02-12T04:06:06.319Z,37.80
2023-02-12T04:08:58.729Z,39.55
2023-02-12T04:12:02.927Z,38.70
2023-02-12T04:14:59.491Z,43.22
2023-02-12T04:17:58.223Z,41.17
2023-02-12T04:20:59.930Z,42.83
2023-02-12T04:24:00.153Z,45.25
2023-02-12T04:26:55.829Z,45.95
2023-02-12T04:29:52.532Z,49.28
2023-02-12T04:32:48.575Z,53.30
2023-02-12T04:35:48.059Z,55.83
2023-02-12T04:38:42.017Z,60.03
2023-02-12T04:41:33.056Z,61.47
2023-02-12T04:44:26.361Z,58.83
2023-02-12T04:47:18.218Z,57.10
2023-02-12T04:50:09.305Z,59.10
2023-02-12T04:52:59.850Z,61.22
2023-02-12T04:55:50.739Z,60.05
2023-02-12T04:58:40.027Z,60.45
2023-02-12T05:01:31.348Z,61.00
2023-02-12T05:04:21.481Z,62.10
2023-02-12T05:07:12.458Z,49.80
2023-02-12T05:10:03.292Z,38.42
2023-02-12T05:12:53.854Z,15.68
2023-02-12T05:15:43.170Z,14.90
2023-02-12T05:18:33.330Z,15.90
2023-02-12T05:21:22.642Z,13.63
2023-02-12T05:24:11.924Z,16.00
2023-02-12T05:27:02.513Z,15.65
2023-02-12T05:29:51.712Z,15.35
2023-02-12T05:32:40.914Z,13.93
2023-02-12T05:35:30.101Z,14.13
2023-02-12T05:38:19.588Z,13.57
2023-02-12T05:41:10.816Z,16.40
2023-02-12T05:44:01.683Z,15.75
2023-02-12T05:46:51.095Z,14.05
2023-02-12T05:49:40.320Z,14.15
2023-02-12T05:52:29.577Z,17.17
2023-02-12T05:55:19.076Z,15.13
2023-02-12T05:58:08.280Z,13.75
2023-02-12T06:00:58.917Z,14.27
2023-02-12T06:03:48.180Z,14.18
2023-02-12T06:06:37.793Z,13.10
2023-02-12T06:09:27.391Z,14.20
2023-02-12T06:12:17.751Z,14.45
2023-02-12T06:15:07.603Z,14.68
2023-02-12T06:17:58.162Z,13.10
2023-02-12T06:20:47.416Z,16.20
2023-02-12T06:23:36.590Z,12.93
2023-02-12T06:26:26.127Z,12.85
2023-02-12T06:29:15.332Z,13.25
2023-02-12T06:32:04.783Z,13.57
2023-02-12T06:34:55.798Z,12.95
2023-02-12T06:37:44.938Z,12.93
2023-02-12T06:40:34.612Z,14.32
2023-02-12T06:43:23.934Z,13.30
2023-02-12T06:46:15.329Z,14.07
2023-02-12T06:49:05.021Z,14.95
2023-02-12T06:51:55.649Z,16.65
2023-02-12T06:54:45.005Z,15.52
2023-02-12T06:57:34.304Z,16.48
2023-02-12T07:00:24.576Z,15.68
2023-02-12T07:03:13.773Z,14.30
2023-02-12T07:06:05.677Z,14.95
2023-02-12T07:08:56.669Z,14.98
2023-02-12T07:11:45.823Z,13.18
2023-02-12T07:14:35.461Z,14.85
2023-02-12T07:17:24.667Z,15.30
2023-02-12T07:20:15.000Z,14.35
2023-02-12T07:23:04.366Z,13.90
2023-02-12T07:26:10.763Z,13.65
2023-02-12T07:28:59.956Z,14.85
2023-02-12T07:31:49.281Z,12.73
2023-02-12T07:34:38.459Z,17.00
2023-02-12T07:37:27.735Z,13.00
2023-02-12T07:40:17.178Z,14.23
2023-02-12T07:43:07.915Z,15.82
2023-02-12T07:46:06.781Z,16.77
2023-02-12T07:48:56.266Z,17.60
2023-02-12T07:51:45.502Z,20.63
2023-02-12T07:54:34.934Z,18.15
2023-02-12T07:57:24.090Z,18.85
2023-02-12T08:00:17.429Z,17.52
2023-02-12T08:03:06.558Z,20.45
2023-02-12T08:05:56.034Z,20.20
2023-02-12T08:08:45.881Z,20.98
2023-02-12T08:11:35.589Z,21.85
2023-02-12T08:14:25.058Z,20.98
2023-02-12T08:17:15.664Z,21.13
2023-02-12T08:20:04.974Z,24.13
2023-02-12T08:22:54.184Z,23.50
2023-02-12T08:25:43.454Z,26.50
2023-02-12T08:28:32.704Z,29.98
2023-02-12T08:31:25.452Z,31.00
2023-02-12T08:34:22.373Z,32.42
2023-02-12T08:37:11.654Z,29.90
2023-02-12T08:40:00.888Z,33.38
2023-02-12T08:42:50.054Z,32.92
2023-02-12T08:45:39.345Z,33.53
2023-02-12T08:48:28.676Z,36.85
2023-02-12T08:51:22.645Z,34.05
2023-02-12T08:54:14.814Z,32.10
2023-02-12T08:57:04.973Z,32.78
2023-02-12T08:59:54.218Z,31.02
2023-02-12T09:02:43.474Z,29.30
2023-02-12T09:05:32.805Z,28.98
2023-02-12T09:08:23.415Z,31.73
2023-02-12T09:11:16.658Z,35.03
2023-02-12T09:16:58.356Z,35.38
2023-02-12T09:19:47.838Z,33.45
2023-02-12T09:22:38.828Z,38.47
2023-02-12T09:25:29.507Z,37.92
2023-02-12T09:28:18.717Z,37.60
2023-02-12T09:31:09.651Z,38.05
2023-02-12T09:34:02.767Z,37.47
2023-02-12T09:39:41.305Z,37.88
2023-02-12T09:43:06.787Z,36.33
2023-02-12T09:46:06.015Z,38.25
2023-02-12T09:49:06.292Z,35.65
2023-02-12T09:51:56.487Z,33.47
2023-02-12T09:54:46.613Z,31.73
2023-02-12T09:57:37.909Z,32.13
2023-02-12T10:00:32.094Z,29.73
2023-02-12T10:03:21.447Z,28.35
2023-02-12T10:06:16.645Z,23.20
2023-02-12T10:09:31.972Z,20.95
2023-02-12T10:12:32.508Z,20.50
2023-02-12T10:15:41.481Z,19.77
2023-02-12T10:19:04.960Z,20.70
2023-02-12T10:22:04.798Z,19.23
2023-02-12T10:25:18.299Z,18.33
2023-02-12T10:28:15.335Z,19.85
2023-02-12T10:31:13.222Z,22.05
2023-02-12T10:34:12.891Z,23.55
2023-02-12T10:37:07.259Z,30.25
2023-02-12T10:40:01.531Z,43.10
2023-02-12T10:42:53.712Z,50.83
2023-02-12T10:45:45.385Z,60.33
2023-02-12T10:48:40.242Z,72.20
2023-02-12T10:52:00.324Z,68.90
2023-02-12T10:54:50.510Z,87.93
2023-02-12T10:57:40.836Z,88.40
2023-02-12T11:00:34.645Z,82.72
2023-02-12T11:03:30.625Z,101.68
2023-02-12T11:06:25.793Z,82.60
2023-02-12T11:09:30.152Z,85.43
2023-02-12T11:12:31.854Z,89.68
2023-02-12T11:15:24.700Z,91.22
2023-02-12T11:18:26.133Z,84.07
2023-02-12T11:21:15.522Z,90.80
2023-02-12T11:27:24.791Z,81.25
2023-02-12T11:30:19.529Z,79.15
2023-02-12T11:33:28.596Z,81.55
2023-02-12T11:36:28.702Z,83.03
2023-02-12T11:39:24.926Z,87.03
2023-02-12T11:42:22.541Z,80.55
2023-02-12T11:45:19.730Z,80.28
2023-02-12T11:48:20.203Z,71.95
2023-02-12T11:51:19.462Z,79.10
2023-02-12T11:54:20.641Z,76.97
2023-02-12T11:57:38.803Z,74.78
2023-02-12T12:00:34.419Z,69.88
2023-02-12T12:03:29.665Z,68.30
2023-02-12T12:06:30.528Z,76.32
2023-02-12T12:09:26.703Z,50.20
2023-02-12T12:12:23.454Z,63.03
2023-02-12T12:15:39.240Z,42.80
2023-02-12T12:18:48.567Z,23.27
2023-02-12T12:21:44.037Z,55.10
2023-02-12T12:24:42.257Z,50.58
2023-02-12T12:27:59.070Z,56.67
2023-02-12T12:31:04.091Z,58.90
2023-02-12T12:33:59.607Z,57.47
2023-02-12T12:37:34.555Z,55.15
2023-02-12T12:40:43.309Z,69.07
2023-02-12T12:43:47.702Z,62.22
2023-02-12T12:46:54.532Z,63.13
2023-02-12T12:49:59.227Z,58.60
2023-02-12T12:53:20.861Z,53.85
2023-02-12T12:56:47.386Z,59.80
2023-02-12T13:00:09.396Z,51.00
2023-02-12T13:03:58.680Z,49.20
2023-02-12T13:07:05.421Z,48.92
2023-02-12T13:10:20.259Z,48.60
2023-02-12T13:13:26.414Z,49.47
2023-02-12T13:16:22.738Z,51.67
2023-02-12T13:19:25.818Z,50.72
2023-02-12T13:22:21.184Z,50.05
2023-02-12T13:25:29.045Z,46.67
2023-02-12T13:28:29.682Z,52.25
2023-02-12T13:31:33.646Z,51.78
2023-02-12T13:34:29.738Z,49.83
2023-02-12T13:37:26.773Z,48.13
2023-02-12T13:40:19.702Z,48.80
2023-02-12T13:43:31.240Z,48.38
2023-02-12T13:46:29.968Z,44.15
2023-02-12T13:49:32.196Z,44.85
2023-02-12T13:52:34.351Z,43.63
2023-02-12T13:55:30.527Z,43.95
2023-02-12T13:58:52.514Z,43.85
2023-02-12T14:01:47.480Z,55.65
2023-02-12T14:04:42.254Z,41.80
2023-02-12T14:07:45.668Z,60.22
2023-02-12T14:10:39.083Z,48.03
2023-02-12T14:13:34.218Z,49.90
2023-02-12T14:16:40.804Z,57.97
2023-02-12T14:19:55.534Z,50.38
2023-02-12T14:23:32.479Z,53.92
2023-02-12T14:26:25.311Z,57.95
2023-02-12T14:29:21.917Z,60.65
2023-02-12T14:33:14.736Z,58.83
2023-02-12T14:36:30.720Z,62.78
2023-02-12T14:39:31.031Z,60.35
2023-02-12T14:42:45.971Z,58.60
2023-02-12T14:45:37.945Z,66.43
2023-02-12T14:48:53.308Z,53.20
2023-02-12T14:51:52.312Z,38.17
2023-02-12T14:54:47.120Z,49.25
2023-02-12T14:57:40.647Z,32.58
2023-02-12T15:00:36.332Z,31.23
2023-02-12T15:03:33.687Z,30.95
2023-02-12T15:06:31.242Z,27.65
2023-02-12T15:09:31.413Z,29.85
2023-02-12T15:12:31.397Z,32.05
2023-02-12T15:15:30.925Z,32.47
2023-02-12T15:18:26.651Z,33.25
2023-02-12T15:21:23.876Z,37.28
2023-02-12T15:24:15.311Z,34.50
2023-02-12T15:27:07.215Z,33.28
2023-02-12T15:29:56.524Z,32.95
2023-02-12T15:32:47.289Z,31.67
2023-02-12T15:35:41.397Z,33.60
2023-02-12T15:38:34.863Z,33.97
2023-02-12T15:41:35.844Z,32.40
2023-02-12T15:44:29.901Z,39.35
2023-02-12T15:47:26.317Z,27.42
2023-02-12T15:50:17.067Z,41.53
2023-02-12T15:53:06.446Z,29.33
2023-02-12T15:55:56.434Z,32.65
2023-02-12T15:58:52.530Z,37.00
2023-02-12T16:01:55.798Z,44.88
2023-02-12T16:04:46.248Z,38.47
2023-02-12T16:07:39.694Z,52.28
2023-02-12T16:10:29.327Z,38.60
2023-02-12T16:13:22.253Z,35.50
2023-02-12T16:16:23.329Z,38.13
2023-02-12T16:19:23.293Z,34.00
2023-02-12T16:22:19.635Z,36.08
2023-02-12T16:25:24.678Z,34.75
2023-02-12T16:28:26.669Z,36.47
2023-02-12T16:31:17.863Z,23.73
2023-02-12T16:34:07.464Z,34.53
2023-02-12T16:36:58.108Z,19.23
2023-02-12T16:40:20.240Z,25.55
2023-02-12T16:43:28.171Z,24.80
2023-02-12T16:46:19.511Z,20.60
2023-02-12T16:49:17.295Z,28.80
2023-02-12T16:52:32.534Z,33.28
2023-02-12T16:55:22.087Z,27.00
2023-02-12T16:58:11.399Z,31.88
2023-02-12T17:01:05.268Z,36.40
2023-02-12T17:03:56.242Z,38.33
2023-02-12T17:06:45.592Z,37.15
2023-02-12T17:09:36.323Z,41.85
2023-02-12T17:12:25.873Z,45.88
2023-02-12T17:15:23.350Z,41.50
2023-02-12T17:18:12.829Z,46.15
2023-02-12T17:21:06.280Z,42.47
2023-02-12T17:23:55.521Z,40.35
2023-02-12T17:26:46.203Z,40.25
2023-02-12T17:29:35.482Z,35.58
2023-02-12T17:32:25.523Z,36.63
2023-02-12T17:35:15.242Z,33.55
2023-02-12T17:38:04.525Z,34.03
2023-02-12T17:40:54.450Z,34.25
2023-02-12T17:43:46.523Z,34.40
2023-02-12T17:46:35.770Z,31.67
2023-02-12T17:49:25.253Z,30.35
2023-02-12T17:52:14.962Z,27.08
2023-02-12T17:55:05.077Z,32.90
2023-02-12T17:57:54.921Z,27.83
2023-02-12T18:00:45.600Z,26.75
2023-02-12T18:03:35.047Z,35.20
2023-02-12T18:06:27.251Z,30.63
2023-02-12T18:09:16.573Z,31.97
2023-02-12T18:12:06.693Z,32.15
2023-02-12T18:14:59.200Z,32.83
2023-02-12T18:17:50.060Z,34.92
2023-02-12T18:20:41.865Z,37.22
2023-02-12T18:23:31.355Z,38.15
2023-02-12T18:26:21.095Z,37.20
2023-02-12T18:29:10.342Z,37.60
2023-02-12T18:32:00.079Z,38.50
2023-02-12T18:34:50.795Z,40.78
2023-02-12T18:37:43.239Z,40.40
2023-02-12T18:40:32.864Z,41.00
2023-02-12T18:43:24.368Z,52.33
2023-02-12T18:46:16.513Z,46.25
2023-02-12T18:49:06.962Z,46.38
2023-02-12T18:51:57.994Z,44.40
2023-02-12T18:54:47.200Z,40.30
2023-02-12T18:57:36.495Z,41.20
2023-02-12T19:00:25.882Z,41.63
2023-02-12T19:03:15.190Z,48.63
2023-02-12T19:06:05.700Z,63.05
2023-02-12T19:08:58.122Z,47.63
2023-02-12T19:11:49.543Z,57.00
2023-02-12T19:14:38.806Z,45.90
2023-02-12T19:17:28.102Z,50.47
2023-02-12T19:20:17.497Z,48.22
2023-02-12T19:23:06.692Z,43.90
2023-02-12T19:25:57.330Z,43.95
2023-02-12T19:28:46.781Z,46.65
2023-02-12T19:31:38.728Z,46.83
2023-02-12T19:34:28.115Z,47.67
2023-02-12T19:37:17.468Z,47.78
2023-02-12T19:40:08.575Z,47.40
2023-02-12T19:42:59.192Z,41.08
2023-02-12T19:45:48.384Z,41.20
2023-02-12T19:48:38.162Z,37.35
2023-02-12T19:51:29.581Z,41.08
2023-02-12T19:54:21.137Z,37.75
2023-02-12T19:57:12.576Z,39.45
2023-02-12T20:00:04.693Z,37.60
2023-02-12T20:02:54.912Z,38.67
2023-02-12T20:05:46.815Z,37.50
2023-02-12T20:08:37.116Z,38.63
2023-02-12T20:11:30.001Z,35.80
2023-02-12T20:14:20.952Z,37.88
2023-02-12T20:17:11.674Z,37.38
2023-02-12T20:20:01.038Z,38.03
2023-02-12T20:22:50.561Z,36.00
2023-02-12T20:25:44.820Z,36.10
2023-02-12T20:28:34.981Z,33.58
2023-02-12T20:31:29.163Z,31.88
2023-02-12T20:34:22.207Z,35.13
2023-02-12T20:37:11.626Z,31.45
2023-02-12T20:40:00.875Z,37.40
2023-02-12T20:42:50.271Z,34.53
2023-02-12T20:45:41.919Z,38.22
2023-02-12T20:48:31.420Z,36.38
2023-02-12T20:51:24.080Z,46.65
2023-02-12T20:54:13.669Z,40.92
2023-02-12T20:57:07.053Z,35.42
2023-02-12T20:59:57.075Z,34.55
2023-02-12T21:02:46.353Z,36.95
2023-02-12T21:05:35.588Z,36.05
2023-02-12T21:08:27.768Z,33.10
2023-02-12T21:11:21.731Z,34.33
2023-02-12T21:14:21.990Z,35.85
2023-02-12T21:17:12.300Z,36.08
2023-02-12T21:20:02.117Z,38.30
2023-02-12T21:22:51.381Z,42.75
2023-02-12T21:25:42.059Z,35.25
2023-02-12T21:28:32.440Z,37.28
2023-02-12T21:31:24.824Z,41.17
2023-02-12T21:34:17.088Z,31.73
2023-02-12T21:37:06.422Z,30.52
2023-02-12T21:39:55.613Z,31.65
2023-02-12T21:42:46.691Z,35.85
2023-02-12T21:45:36.229Z,31.30
2023-02-12T21:48:25.745Z,36.33
2023-02-12T21:51:20.827Z,30.25
2023-02-12T21:54:13.445Z,32.70
2023-02-12T21:57:02.758Z,32.70
2023-02-12T21:59:53.389Z,65.55
2023-02-12T22:02:42.679Z,81.85
2023-02-12T22:05:34.069Z,78.32
2023-02-12T22:08:24.831Z,83.60
2023-02-12T22:11:15.753Z,67.03
2023-02-12T22:14:05.204Z,74.32
2023-02-12T22:16:55.781Z,40.47
2023-02-12T22:19:45.058Z,48.58
2023-02-12T22:22:34.599Z,34.58
2023-02-12T22:25:23.847Z,38.92
2023-02-12T22:28:13.091Z,41.15
2023-02-12T22:31:07.453Z,47.50
2023-02-12T22:34:02.194Z,34.85
2023-02-12T22:36:51.585Z,45.75
2023-02-12T22:39:40.944Z,52.75
2023-02-12T22:42:30.280Z,67.15
2023-02-12T22:45:19.592Z,67.43
2023-02-12T22:48:08.835Z,61.53
2023-02-12T22:51:00.207Z,48.80
2023-02-12T22:53:49.864Z,64.72
2023-02-12T22:56:39.142Z,73.60
2023-02-12T22:59:28.800Z,63.72
2023-02-12T23:02:18.143Z,58.00
2023-02-12T23:05:07.502Z,63.25
2023-02-12T23:07:58.144Z,60.53
2023-02-12T23:10:47.369Z,60.97
2023-02-12T23:13:37.563Z,74.88
2023-02-12T23:16:27.865Z,60.88
2023-02-12T23:19:17.645Z,59.97
2023-02-12T23:22:06.989Z,56.50
2023-02-12T23:24:57.660Z,57.78
2023-02-12T23:27:46.974Z,61.65
2023-02-12T23:30:36.487Z,55.50
2023-02-12T23:33:26.236Z,63.25
2023-02-12T23:36:15.901Z,59.55
2023-02-12T23:39:06.291Z,58.20
2023-02-12T23:41:57.167Z,54.05
2023-02-12T23:44:46.353Z,56.50
2023-02-12T23:47:35.616Z,57.05
2023-02-12T23:50:25.362Z,61.95
2023-02-12T23:53:15.063Z,62.17
2023-02-12T23:56:04.406Z,67.40
2023-02-12T23:58:57.413Z,69.25
